Main page
METAR-TAF:

METAR-TAF

Airports :

Land's End Airport

Land's End, England

latitude: 50-06-10N, longitude: 005-40-14W, elevation: 122 m

METAR: missing

Time: 14:39 (13:39 UTC)

Forecast

The report was made 29 hours and 11 minutes ago, at 08:28 UTC
Forecast valid from 04 at 09 UTC to 04 at 18 UTC
Wind 14 kt from the Southeast
Visibility 10 km or more
Few clouds at a height of 2500 ft
Probability 30% :
Temporary
from 04 at 09 UTC to 04 at 18 UTC
Wind 17 kt from the South/Southeast with gusts up to 27 kt

TAF: EGHC 040828Z 0409/0418 14014KT 9999 FEW025 PROB30 TEMPO 0409/0418 16017G27KT

Weather observations and forecasts of more than 4000 airports (METAR and TAF reports).

The available stations are represented by yellow and red dots on the map.

Hover mouse over dot to see the name of the station.

Then click to see weather observations and forecasts.

To change the map : click on the green buttons with a black cross to zoom in, on the green button with a dash to zoom out, or on the green arrows for adjacent maps.


METAR-TAF: